• Join FlightAware (Why Join?)
  • Login
  • US Flag 
05:49AM EST


 

Airport Tracker/Info


-or-


 

Live Flight TrackerFlight Track Log ✈ N53442 ✈ 07-Jul-2013 ✈ KSEA - KIAH

Flight Track Log - Related Links

Times and Time Zones

All times are in EDT time to prevent confusion due to time zone crossing. See the N53442 flight status page for this flight to view local times or setup timezone preferences in your user account.

Time Position Orientation Groundspeed Altitude Reporting Facility
EDT Latitude Longitude Course Direction KTS MPH feet Rate Location/Type
03:35AM 47.4643 -122.3080 North 179 206 900  Level FlightAware ADS-B
03:35AM 47.4732 -122.3070 North 178 205 1,400 2,520 Climbing FlightAware ADS-B
03:35AM 47.4803 -122.3070 360° North 181 208 1,700 1,560 Climbing FlightAware ADS-B
03:35AM 47.4894 -122.3070 360° North 195 224 1,900 1,620 Climbing FlightAware ADS-B
03:36AM 47.5007 -122.3070 360° North 202 232 2,300 1,800 Climbing FlightAware ADS-B
03:36AM 47.5113 -122.3070 360° North 216 249 2,600 1,800 Climbing FlightAware ADS-B
03:36AM 47.5263 -122.3080 357° North 227 261 3,100 2,460 Climbing FlightAware ADS-B
03:36AM 47.5415 -122.3080 360° North 226 260 3,800 2,520 Climbing FlightAware ADS-B
03:37AM 47.5543 -122.3090 357° North 239 275 4,200 1,500 Climbing FlightAware ADS-B
03:37AM 47.5628 -122.3090 360° North 249 287 4,300 1,500 Climbing FlightAware ADS-B
03:37AM 47.5674 -122.3100 352° North 256 295 4,500 3,420 Climbing FlightAware ADS-B
03:37AM 47.5715 -122.3110 351° North 257 296 4,700 2,520 Climbing FlightAware ADS-B
03:37AM 47.5751 -122.3130 339° North 258 297 4,800 1,680 Climbing FlightAware ADS-B
03:37AM 47.5785 -122.3150 338° Northwest 259 298 4,900 2,220 Climbing FlightAware ADS-B
03:37AM 47.5840 -122.3200 328° Northwest 262 302 5,100 2,640 Climbing FlightAware ADS-B
03:37AM 47.5872 -122.3240 320° Northwest 263 303 5,300 2,160 Climbing FlightAware ADS-B
03:37AM 47.6015 -122.3430 318° Northwest 275 316 5,800 2,220 Climbing FlightAware ADS-B
03:38AM 47.6131 -122.3590 317° Northwest 281 323 6,300 2,640 Climbing FlightAware ADS-B
03:38AM 47.6176 -122.3670 310° West 283 326 6,600 3,000 Climbing FlightAware ADS-B
03:38AM 47.6206 -122.3730 307° West 283 326 6,800 3,000 Climbing FlightAware ADS-B
03:38AM 47.6231 -122.3800 298° West 282 325 7,000 2,820 Climbing FlightAware ADS-B
03:38AM 47.6326 -122.4060 298° West 285 328 7,700 2,700 Climbing FlightAware ADS-B
03:38AM 47.6349 -122.4140 293° West 287 330 7,900 2,220 Climbing FlightAware ADS-B
03:38AM 47.6362 -122.4200 288° West 286 329 8,000 3,000 Climbing FlightAware ADS-B
03:38AM 47.6372 -122.4270 282° West 284 327 8,200 3,960 Climbing FlightAware ADS-B
03:38AM 47.6376 -122.4330 276° West 282 325 8,400 3,300 Climbing FlightAware ADS-B
03:38AM 47.6374 -122.4430 268° West 281 323 8,700 2,640 Climbing FlightAware ADS-B
03:38AM 47.6368 -122.4490 262° West 280 322 8,800 3,000 Climbing FlightAware ADS-B
03:38AM 47.6356 -122.4560 256° West 279 321 9,000 3,420 Climbing FlightAware ADS-B
03:39AM 47.6338 -122.4630 249° West 278 320 9,200 2,220 Climbing FlightAware ADS-B
03:39AM 47.6319 -122.4680 241° Southwest 278 320 9,300 2,220 Climbing FlightAware ADS-B
03:39AM 47.6285 -122.4760 238° Southwest 276 318 9,500 2,640 Climbing FlightAware ADS-B
03:39AM 47.6248 -122.4820 228° Southwest 276 318 9,700 2,640 Climbing FlightAware ADS-B
03:39AM 47.6207 -122.4870 219° Southwest 275 316 9,900 2,700 Climbing FlightAware ADS-B
03:39AM 47.6128 -122.4940 211° Southwest 277 319 10,200 2,160 Climbing FlightAware ADS-B
03:39AM 47.6087 -122.4960 198° South 278 320 10,300 1,980 Climbing FlightAware ADS-B
03:39AM 47.5979 -122.4990 191° South 282 325 10,600 2,100 Climbing FlightAware ADS-B
03:40AM 47.5531 -122.4970 178° South 293 337 11,800 2,100 Climbing FlightAware ADS-B
03:40AM 47.5373 -122.4950 175° South 301 346 12,200 2,220 Climbing FlightAware ADS-B
03:40AM 47.5304 -122.4940 174° South 305 351 12,400 1,980 Climbing FlightAware ADS-B
03:40AM 47.5043 -122.4840 165° South 314 361 13,000 1,320 Climbing FlightAware ADS-B
03:41AM 47.4609 -122.4610 160° South 346 398 13,500 1,260 Climbing FlightAware ADS-B
03:41AM 47.4141 -122.4340 159° South 363 418 14,300 1,860 Climbing FlightAware ADS-B
03:42AM 47.3663 -122.4070 159° South 373 429 15,400 2,160 Climbing FlightAware ADS-B
03:42AM 47.3172 -122.3790 159° South 378 435 16,500 2,160 Climbing FlightAware ADS-B
03:43AM 47.2675 -122.3510 159° South 384 442 17,600 2,040 Climbing FlightAware ADS-B
03:43AM 47.2168 -122.3230 159° South 390 449 18,600 1,920 Climbing FlightAware ADS-B
03:44AM 47.1652 -122.2930 158° South 396 456 19,600 1,860 Climbing FlightAware ADS-B
03:44AM 47.1129 -122.2640 159° South 404 465 20,500 1,800 Climbing FlightAware ADS-B
03:45AM 47.0906 -122.2500 157° South 411 473 20,900 1,740 Climbing FlightAware ADS-B
03:45AM 47.0849 -122.2450 149° Southeast 414 476 21,000 1,980 Climbing FlightAware ADS-B
03:45AM 47.0729 -122.2320 144° Southeast 416 479 21,300 1,860 Climbing FlightAware ADS-B
03:45AM 47.0616 -122.2160 136° Southeast 420 483 21,500 1,680 Climbing FlightAware ADS-B
03:45AM 47.0539 -122.2020 129° Southeast 423 487 21,700 1,500 Climbing FlightAware ADS-B
03:45AM 47.0475 -122.1870 122° Southeast 425 489 21,800 1,620 Climbing FlightAware ADS-B
03:46AM 47.0185 -122.1100 119° Southeast 430 495 22,700 1,560 Climbing FlightAware ADS-B
03:46AM 46.9889 -122.0320 119° Southeast 437 503 23,400 1,380 Climbing FlightAware ADS-B
03:47AM 46.9585 -121.9540 120° Southeast 445 512 24,100 1,320 Climbing FlightAware ADS-B
03:47AM 46.9274 -121.8740 120° Southeast 450 518 24,800 1,440 Climbing FlightAware ADS-B
03:48AM 46.8953 -121.7910 119° Southeast 455 524 25,600 1,440 Climbing FlightAware ADS-B
03:48AM 46.8632 -121.7090 120° Southeast 459 528 26,300 1,320 Climbing FlightAware ADS-B
03:49AM 46.8314 -121.6270 120° Southeast 461 531 27,000 1,380 Climbing FlightAware ADS-B
03:49AM 46.7996 -121.5460 120° Southeast 464 534 27,700 1,200 Climbing FlightAware ADS-B
03:50AM 46.7530 -121.4270 120° Southeast 468 539 28,500 960 Climbing FlightAware
03:51AM 46.7100 -121.3180 120° Southeast 474 545 29,100 960 Climbing FlightAware
03:51AM 46.6650 -121.2040 120° Southeast 481 554 29,800 960 Climbing FlightAware
03:52AM 46.6230 -121.0990 120° Southeast 483 556 30,400 1,140 Climbing FlightAware
03:52AM 46.5790 -120.9870 120° Southeast 480 552 31,300 1,200 Climbing FlightAware
03:53AM 46.5330 -120.8720 120° Southeast 480 552 32,100 1,080 Climbing FlightAware
03:54AM 46.4870 -120.7590 121° Southeast 479 551 32,800 960 Climbing FlightAware
03:55AM 46.4400 -120.6420 120° Southeast 478 550 33,500 900 Climbing FlightAware
03:55AM 46.3930 -120.5250 120° Southeast 477 549 34,100 900 Climbing FlightAware
03:56AM 46.3480 -120.4160 121° Southeast 473 544 34,800 600 Climbing FlightAware
03:57AM 46.2990 -120.2960 121° Southeast 476 548 35,000 120 Climbing FlightAware
03:57AM 46.2540 -120.1860 121° Southeast 478 550 35,000  Level FlightAware
03:58AM 46.2110 -120.0800 120° Southeast 481 554 35,000  Level FlightAware
03:58AM 46.1750 -119.9940 121° Southeast 485 558 35,000  Level FlightAware
03:59AM 46.1240 -119.8720 121° Southeast 487 560 35,000  Level FlightAware
03:59AM 46.1130 -119.8440 120° Southeast 487 560 35,000  Level FlightAware
04:00AM 46.0470 -119.6880 121° Southeast 487 560 35,000  Level FlightAware
04:01AM 45.9990 -119.5720 121° Southeast 487 560 35,000  Level FlightAware
04:02AM 45.9500 -119.4560 121° Southeast 488 562 35,000  Level FlightAware
04:02AM 45.9010 -119.3390 121° Southeast 488 562 35,000  Level FlightAware
04:03AM 45.8530 -119.2280 122° Southeast 487 560 35,000  Level FlightAware
04:04AM 45.7850 -119.0680 121° Southeast 488 562 35,000  Level FlightAware
04:05AM 45.7400 -118.9640 122° Southeast 487 560 35,000  Level FlightAware
04:05AM 45.6910 -118.8500 122° Southeast 487 560 35,000  Level FlightAware
04:06AM 45.6470 -118.7480 122° Southeast 487 560 35,000  Level FlightAware
04:07AM 45.5980 -118.6340 122° Southeast 487 560 35,000  Level FlightAware
04:07AM 45.5480 -118.5190 122° Southeast 486 559 35,000  Level FlightAware
04:08AM 45.5070 -118.4260 122° Southeast 486 559 35,000  Level FlightAware
04:09AM 45.4550 -118.3080 122° Southeast 483 556 35,000  Level FlightAware
04:09AM 45.4100 -118.2050 122° Southeast 481 554 35,000  Level FlightAware
04:10AM 45.3600 -118.0930 122° Southeast 479 551 35,000  Level FlightAware
04:11AM 45.2870 -117.9290 122° Southeast 476 548 35,000  Level FlightAware
04:12AM 45.2410 -117.8260 122° Southeast 478 550 35,000  Level FlightAware
04:12AM 45.1940 -117.7190 122° Southeast 481 554 35,000  Level FlightAware
04:13AM 45.1500 -117.6230 123° Southeast 482 555 35,000  Level FlightAware
04:14AM 45.0970 -117.5050 122° Southeast 482 555 35,000  Level FlightAware
04:14AM 45.0470 -117.3960 123° Southeast 482 555 35,000  Level FlightAware
04:15AM 44.9940 -117.2780 122° Southeast 481 554 35,000  Level FlightAware
04:16AM 44.9370 -117.1520 123° Southeast 481 554 35,000  Level FlightAware
04:17AM 44.8880 -117.0460 123° Southeast 482 555 35,000  Level FlightAware
04:17AM 44.8370 -116.9360 123° Southeast 483 556 35,000  Level FlightAware
04:18AM 44.7800 -116.8130 123° Southeast 484 557 35,000  Level FlightAware
04:19AM 44.7320 -116.7100 123° Southeast 484 557 35,000  Level FlightAware
04:19AM 44.6830 -116.6040 123° Southeast 483 556 35,000  Level FlightAware
04:20AM 44.6290 -116.4880 123° Southeast 483 556 35,000  Level FlightAware
04:21AM 44.5810 -116.3850 123° Southeast 482 555 35,000  Level FlightAware
04:21AM 44.5360 -116.2900 124° Southeast 482 555 35,000  Level FlightAware
04:22AM 44.4880 -116.1880 123° Southeast 483 556 35,000  Level FlightAware
04:23AM 44.4330 -116.0730 124° Southeast 485 558 35,000  Level FlightAware
04:24AM 44.3810 -115.9650 124° Southeast 486 559 35,000  Level FlightAware
04:24AM 44.3260 -115.8480 123° Southeast 488 562 35,000  Level FlightAware
04:25AM 44.2730 -115.7390 124° Southeast 490 564 35,000  Level FlightAware
04:26AM 44.2190 -115.6270 124° Southeast 491 565 35,000  Level FlightAware
04:26AM 44.1690 -115.5230 124° Southeast 488 562 35,000  Level FlightAware
04:27AM 44.1160 -115.4140 124° Southeast 483 556 35,000  Level FlightAware
04:28AM 44.0610 -115.3020 124° Southeast 483 556 35,000  Level FlightAware
04:28AM 44.0090 -115.1950 124° Southeast 486 559 35,000  Level FlightAware
04:29AM 43.9600 -115.0950 124° Southeast 488 562 35,000  Level FlightAware
04:30AM 43.9050 -114.9830 124° Southeast 490 564 35,000  Level FlightAware
04:31AM 43.8480 -114.8680 124° Southeast 493 567 35,000  Level FlightAware
04:31AM 43.8010 -114.7740 125° Southeast 489 563 35,000  Level FlightAware
04:32AM 43.7400 -114.6520 125° Southeast 481 554 35,000  Level FlightAware
04:33AM 43.6920 -114.5550 124° Southeast 480 552 35,000  Level FlightAware
04:33AM 43.6520 -114.4750 125° Southeast 480 552 35,000  Level FlightAware
04:34AM 43.5910 -114.3560 125° Southeast 481 554 35,000  Level FlightAware
04:35AM 43.5350 -114.2440 125° Southeast 482 555 35,000  Level FlightAware
04:35AM 43.4840 -114.1430 125° Southeast 482 555 35,000  Level FlightAware
04:36AM 43.4644 -114.1050 125° Southeast 483 556 35,000  Level FlightAware ADS-B
04:36AM 43.4079 -113.9940 125° Southeast 482 555 35,000  Level FlightAware ADS-B
04:37AM 43.3253 -113.8330 125° Southeast 481 554 35,000  Level FlightAware ADS-B
04:38AM 43.2847 -113.7540 125° Southeast 480 552 35,000  Level FlightAware ADS-B
04:39AM 43.2340 -113.6550 125° Southeast 481 554 35,000  Level FlightAware
04:39AM 43.2146 -113.6180 126° Southeast 481 554 35,000  Level FlightAware ADS-B
04:39AM 43.1720 -113.5370 126° Southeast 482 555 35,000  Level FlightAware
04:40AM 43.1280 -113.4510 125° Southeast 482 555 35,000  Level FlightAware
04:41AM 43.0750 -113.3480 125° Southeast 482 555 35,000  Level FlightAware
04:41AM 43.0170 -113.2380 126° Southeast 481 554 35,000  Level FlightAware
04:42AM 42.9821 -113.1720 126° Southeast 482 555 35,000  Level FlightAware ADS-B
04:43AM 42.9228 -113.0590 126° Southeast 482 555 35,000  Level FlightAware ADS-B
04:43AM 42.8801 -112.9780 126° Southeast 482 555 35,000  Level FlightAware ADS-B
04:44AM 42.8367 -112.8960 126° Southeast 482 555 35,000  Level FlightAware ADS-B
04:44AM 42.7866 -112.8020 126° Southeast 481 554 35,000  Level FlightAware ADS-B
04:45AM 42.7230 -112.6780 125° Southeast 480 552 35,000  Level FlightAware
04:46AM 42.6450 -112.5360 127° Southeast 479 551 35,000  Level FlightAware
04:46AM 42.6241 -112.4980 127° Southeast 480 552 35,000  Level FlightAware ADS-B
04:47AM 42.5822 -112.4200 126° Southeast 480 552 35,000  Level FlightAware ADS-B
04:48AM 42.5490 -112.3550 125° Southeast 478 550 35,000  Level FlightAware
04:48AM 42.5059 -112.2780 127° Southeast 479 551 35,000  Level FlightAware ADS-B
04:48AM 42.4636 -112.2000 126° Southeast 480 552 35,000  Level FlightAware ADS-B
04:49AM 42.4127 -112.1070 127° Southeast 480 552 35,000  Level FlightAware ADS-B
04:50AM 42.3730 -112.0340 126° Southeast 479 551 35,000  Level FlightAware ADS-B
04:50AM 42.3333 -111.9610 126° Southeast 478 550 35,000  Level FlightAware ADS-B
04:51AM 42.2927 -111.8870 127° Southeast 478 550 35,000  Level FlightAware ADS-B
04:51AM 42.2450 -111.8000 127° Southeast 478 550 35,000  Level FlightAware ADS-B
04:52AM 42.1860 -111.6940 127° Southeast 478 550 35,000  Level FlightAware
04:52AM 42.1747 -111.6730 126° Southeast 480 552 35,000  Level FlightAware ADS-B
04:53AM 42.1320 -111.5950 126° Southeast 481 554 35,000  Level FlightAware
04:53AM 42.1207 -111.5750 127° Southeast 481 554 35,000  Level FlightAware ADS-B
04:53AM 42.0790 -111.4990 126° Southeast 481 554 35,000  Level FlightAware
04:54AM 42.0633 -111.4710 127° Southeast 481 554 35,000  Level FlightAware ADS-B
04:54AM 42.0214 -111.3960 127° Southeast 480 552 35,000  Level FlightAware ADS-B
04:55AM 41.9814 -111.3240 127° Southeast 478 550 35,000  Level FlightAware ADS-B
04:55AM 41.9414 -111.2530 127° Southeast 476 548 35,000  Level FlightAware ADS-B
04:56AM 41.9016 -111.1820 127° Southeast 476 548 35,000  Level FlightAware ADS-B
04:56AM 41.8597 -111.1070 127° Southeast 474 545 35,000  Level FlightAware ADS-B
04:57AM 41.8193 -111.0350 127° Southeast 473 544 35,000  Level FlightAware ADS-B
04:57AM 41.7798 -110.9650 127° Southeast 472 543 35,000  Level FlightAware ADS-B
04:58AM 41.7398 -110.8950 127° Southeast 472 543 35,000  Level FlightAware ADS-B
04:58AM 41.6995 -110.8240 127° Southeast 472 543 35,000  Level FlightAware ADS-B
04:59AM 41.6596 -110.7540 127° Southeast 472 543 35,000  Level FlightAware ADS-B
05:01AM 41.4970 -110.4700 127° Southeast 476 548 35,000  Level FlightAware
05:01AM 41.4520 -110.3900 127° Southeast 476 548 35,000  Level FlightAware
05:02AM 41.3980 -110.2940 127° Southeast 476 548 35,000  Level FlightAware
05:03AM 41.3130 -110.1510 128° Southeast 475 547 35,000  Level FlightAware
05:04AM 41.2600 -110.0590 127° Southeast 474 545 35,000  Level FlightAware
05:04AM 41.2130 -109.9790 128° Southeast 474 545 35,000  Level FlightAware
05:05AM 41.1540 -109.8780 128° Southeast 476 548 35,000  Level FlightAware
05:06AM 41.0980 -109.7820 128° Southeast 476 548 35,000  Level FlightAware
05:06AM 41.0430 -109.6900 128° Southeast 474 545 35,000  Level FlightAware
05:07AM 40.9840 -109.5890 128° Southeast 476 548 35,000  Level FlightAware
05:08AM 40.9280 -109.4940 128° Southeast 475 547 35,000  Level FlightAware
05:08AM 40.8730 -109.4010 128° Southeast 473 544 35,000  Level FlightAware
05:09AM 40.8150 -109.3040 128° Southeast 471 542 35,000  Level FlightAware
05:10AM 40.7620 -109.2150 128° Southeast 472 543 35,000  Level FlightAware
05:11AM 40.6440 -109.0190 128° Southeast 474 545 35,000  Level FlightAware
05:12AM 40.5880 -108.9260 128° Southeast 476 548 35,000  Level FlightAware
05:13AM 40.5280 -108.8280 129° Southeast 478 550 35,000  Level FlightAware
05:13AM 40.4790 -108.7460 128° Southeast 478 550 35,000  Level FlightAware
05:14AM 40.4240 -108.6560 129° Southeast 479 551 35,000  Level FlightAware
05:15AM 40.3150 -108.4780 129° Southeast 482 555 35,000  Level FlightAware
05:16AM 40.2560 -108.3810 129° Southeast 482 555 35,000  Level FlightAware
05:17AM 40.1940 -108.2810 129° Southeast 483 556 35,000  Level FlightAware
05:17AM 40.1440 -108.2000 129° Southeast 480 552 35,000  Level FlightAware
05:18AM 40.0950 -108.1200 129° Southeast 482 555 35,000  Level FlightAware
05:19AM 40.0270 -108.0100 129° Southeast 481 554 35,000  Level FlightAware
05:19AM 39.9830 -107.9400 129° Southeast 479 551 35,000  Level FlightAware
05:20AM 39.9190 -107.8370 129° Southeast 476 548 35,000  Level FlightAware
05:21AM 39.8630 -107.7490 130° Southeast 476 548 35,000  Level FlightAware
05:21AM 39.8040 -107.6550 129° Southeast 478 550 35,000  Level FlightAware
05:22AM 39.7447 -107.5610 129° Southeast 478 550 35,000  Level FlightAware ADS-B
05:23AM 39.6860 -107.4680 129° Southeast 478 550 35,000  Level FlightAware
05:23AM 39.6340 -107.3860 129° Southeast 478 550 35,000  Level FlightAware
05:24AM 39.6140 -107.3540 129° Southeast 479 551 35,000  Level FlightAware ADS-B
05:24AM 39.5718 -107.2880 130° Southeast 477 549 35,000  Level FlightAware ADS-B
05:25AM 39.5289 -107.2210 130° Southeast 477 549 35,000  Level FlightAware ADS-B
05:25AM 39.4847 -107.1510 129° Southeast 476 548 35,000  Level FlightAware ADS-B
05:26AM 39.4420 -107.0840 130° Southeast 475 547 35,000  Level FlightAware ADS-B
05:26AM 39.3998 -107.0180 130° Southeast 476 548 35,000  Level FlightAware ADS-B
05:27AM 39.3567 -106.9520 130° Southeast 477 549 35,000  Level FlightAware ADS-B
05:27AM 39.3125 -106.8830 130° Southeast 477 549 35,000  Level FlightAware ADS-B
05:28AM 39.2697 -106.8170 130° Southeast 477 549 35,000  Level FlightAware ADS-B
05:28AM 39.2271 -106.7510 130° Southeast 478 550 35,000  Level FlightAware ADS-B
05:29AM 39.1845 -106.6850 130° Southeast 478 550 35,000  Level FlightAware ADS-B
05:29AM 39.1398 -106.6160 130° Southeast 476 548 35,000  Level FlightAware ADS-B
05:30AM 39.0973 -106.5510 130° Southeast 476 548 35,000  Level FlightAware ADS-B
05:30AM 39.0542 -106.4850 130° Southeast 476 548 35,000  Level FlightAware ADS-B
05:31AM 39.0115 -106.4200 130° Southeast 475 547 35,000  Level FlightAware ADS-B
05:31AM 38.9691 -106.3550 130° Southeast 474 545 35,000  Level FlightAware ADS-B
05:32AM 38.9205 -106.2810 130° Southeast 474 545 35,000  Level FlightAware ADS-B
05:32AM 38.8778 -106.2160 130° Southeast 476 548 35,000  Level FlightAware ADS-B
05:33AM 38.8353 -106.1520 130° Southeast 476 548 35,000  Level FlightAware ADS-B
05:33AM 38.7925 -106.0870 130° Southeast 478 550 35,000  Level FlightAware ADS-B
05:34AM 38.7449 -106.0150 130° Southeast 478 550 35,000  Level FlightAware ADS-B
05:34AM 38.6987 -105.9450 130° Southeast 479 551 35,000  Level FlightAware ADS-B
05:35AM 38.6549 -105.8800 131° Southeast 479 551 35,000  Level FlightAware ADS-B
05:35AM 38.6118 -105.8150 130° Southeast 478 550 35,000  Level FlightAware ADS-B
05:36AM 38.5688 -105.7500 130° Southeast 477 549 35,000  Level FlightAware ADS-B
05:36AM 38.5252 -105.6850 131° Southeast 476 548 35,000  Level FlightAware ADS-B
05:37AM 38.4813 -105.6200 131° Southeast 474 545 35,000  Level FlightAware ADS-B
05:37AM 38.4376 -105.5550 131° Southeast 474 545 35,000  Level FlightAware ADS-B
05:38AM 38.3946 -105.4910 131° Southeast 473 544 35,000  Level FlightAware ADS-B
05:38AM 38.3519 -105.4280 131° Southeast 472 543 35,000  Level FlightAware ADS-B
05:39AM 38.3089 -105.3640 131° Southeast 473 544 35,000  Level FlightAware ADS-B
05:39AM 38.2651 -105.2990 131° Southeast 474 545 35,000  Level FlightAware ADS-B
05:40AM 38.2223 -105.2360 131° Southeast 474 545 35,000  Level FlightAware ADS-B
05:40AM 38.1790 -105.1720 131° Southeast 475 547 35,000  Level FlightAware ADS-B
05:41AM 38.1356 -105.1080 131° Southeast 476 548 35,000  Level FlightAware ADS-B
05:41AM 38.0923 -105.0450 131° Southeast 476 548 35,000  Level FlightAware ADS-B
05:42AM 38.0487 -104.9810 131° Southeast 477 549 35,000  Level FlightAware ADS-B
05:43AM 38.0006 -104.9110 131° Southeast 478 550 35,000  Level FlightAware ADS-B
05:43AM 37.9562 -104.8460 131° Southeast 478 550 35,000  Level FlightAware ADS-B
05:44AM 37.9110 -104.7810 131° Southeast 478 550 35,000  Level FlightAware ADS-B
05:44AM 37.8668 -104.7170 131° Southeast 479 551 35,000  Level FlightAware ADS-B
05:45AM 37.8226 -104.6530 131° Southeast 481 554 35,000  Level FlightAware ADS-B
05:45AM 37.7741 -104.5830 131° Southeast 481 554 35,000  Level FlightAware ADS-B
05:46AM 37.7259 -104.5130 131° Southeast 481 554 35,000  Level FlightAware ADS-B
05:46AM 37.6604 -104.4190 131° Southeast 481 554 35,000  Level FlightAware ADS-B
05:48AM 37.5020 -104.1920 131° Southeast 478 550 35,000  Level FlightAware ADS-B
05:49AM 37.4239 -104.0810 132° Southeast 477 549 35,000  Level FlightAware ADS-B
05:50AM 37.3795 -104.0180 132° Southeast 477 549 35,000  Level FlightAware ADS-B
05:50AM 37.3353 -103.9560 132° Southeast 475 547 35,000  Level FlightAware ADS-B
05:51AM 37.2892 -103.8910 132° Southeast 474 545 35,000  Level FlightAware ADS-B
05:51AM 37.2469 -103.8319 132° Southeast 475 547 35,000  Level Denver Center
05:52AM 37.1642 -103.7147 132° Southeast 471 542 35,000  Level Denver Center
05:53AM 37.0672 -103.5789 132° Southeast 471 542 35,000  Level Albuquerque Center
05:54AM 36.9842 -103.4625 132° Southeast 470 541 35,000  Level Albuquerque Center
05:55AM 36.9003 -103.3464 132° Southeast 471 542 35,000  Level Albuquerque Center
05:56AM 36.8156 -103.2308 132° Southeast 471 542 35,000  Level Albuquerque Center
05:57AM 36.7181 -103.0922 131° Southeast 474 545 35,000  Level Albuquerque Center
05:58AM 36.6322 -102.9764 133° Southeast 479 551 35,000  Level Albuquerque Center
05:59AM 36.5489 -102.8617 132° Southeast 476 548 35,000  Level Albuquerque Center
06:00AM 36.4603 -102.7394 132° Southeast 477 549 35,000  Level Albuquerque Center
06:01AM 36.3714 -102.6183 132° Southeast 475 547 35,000  Level Albuquerque Center
06:02AM 36.2819 -102.4967 132° Southeast 477 549 35,000  Level Albuquerque Center
06:03AM 36.1917 -102.3742 132° Southeast 480 552 35,000  Level Albuquerque Center
06:04AM 36.1000 -102.2519 133° Southeast 483 556 35,000  Level Albuquerque Center
06:05AM 36.0092 -102.1294 132° Southeast 483 556 35,000  Level Albuquerque Center
06:06AM 35.9192 -102.0083 133° Southeast 480 552 35,000  Level Albuquerque Center
06:07AM 35.8275 -101.8878 133° Southeast 481 554 35,000  Level Albuquerque Center
06:08AM 35.7392 -101.7689 132° Southeast 474 545 35,000  Level Albuquerque Center
06:09AM 35.6489 -101.6489 133° Southeast 473 544 35,000  Level Albuquerque Center
06:10AM 35.5578 -101.5289 133° Southeast 476 548 35,000  Level Albuquerque Center
06:11AM 35.4656 -101.4081 133° Southeast 473 544 35,000  Level Albuquerque Center
06:12AM 35.3758 -101.2894 133° Southeast 474 545 35,000  Level Albuquerque Center
06:13AM 35.2847 -101.1708 133° Southeast 475 547 35,000  Level Albuquerque Center
06:14AM 35.1944 -101.0556 134° Southeast 472 543 35,000  Level Albuquerque Center
06:15AM 35.1047 -100.9400 133° Southeast 469 540 35,000  Level Albuquerque Center
06:16AM 35.0147 -100.8250 134° Southeast 468 539 35,000  Level Albuquerque Center
06:17AM 34.9267 -100.7106 133° Southeast 465 535 35,000  Level Albuquerque Center
06:23AM 34.4000 -100.0420 133° Southeast 463 533 35,000  Level FlightAware
06:24AM 34.3420 -99.9680 133° Southeast 464 534 35,000  Level FlightAware
06:24AM 34.2760 -99.8870 135° Southeast 462 532 35,000  Level FlightAware
06:25AM 34.2250 -99.8220 133° Southeast 461 531 35,000  Level FlightAware
06:26AM 34.1620 -99.7440 134° Southeast 461 531 35,000  Level FlightAware
06:26AM 34.1000 -99.6670 134° Southeast 461 531 35,000  Level FlightAware
06:27AM 34.0400 -99.5920 134° Southeast 461 531 35,000  Level FlightAware
06:28AM 33.9780 -99.5150 134° Southeast 461 531 35,000  Level FlightAware
06:28AM 33.9190 -99.4420 134° Southeast 463 533 35,000  Level FlightAware
06:29AM 33.8540 -99.3620 134° Southeast 463 533 35,000  Level FlightAware
06:30AM 33.8080 -99.3030 133° Southeast 463 533 35,000  Level FlightAware
06:31AM 33.7470 -99.2280 134° Southeast 463 533 35,000  Level FlightAware
06:31AM 33.7000 -99.1700 134° Southeast 463 533 35,000  Level FlightAware
06:32AM 33.6390 -99.0940 134° Southeast 463 533 35,000  Level FlightAware
06:33AM 33.5350 -98.9700 135° Southeast 469 540 35,000  Level FlightAware
06:33AM 33.4670 -98.8880 135° Southeast 468 539 35,000  Level FlightAware
06:34AM 33.4190 -98.8290 134° Southeast 468 539 35,000  Level FlightAware
06:35AM 33.3690 -98.7680 134° Southeast 468 539 35,000  Level FlightAware
06:36AM 33.2620 -98.6390 135° Southeast 463 533 35,000  Level FlightAware
06:36AM 33.2020 -98.5670 135° Southeast 463 533 35,000  Level FlightAware
06:37AM 33.1370 -98.4880 134° Southeast 462 532 35,000  Level FlightAware
06:38AM 33.0750 -98.4140 135° Southeast 461 531 35,000  Level FlightAware
06:38AM 33.0090 -98.3340 135° Southeast 461 531 35,000  Level FlightAware
06:39AM 32.9480 -98.2620 135° Southeast 459 528 35,000  Level FlightAware
06:40AM 32.8880 -98.1900 135° Southeast 460 529 35,000  Level FlightAware
06:41AM 32.8220 -98.1120 135° Southeast 461 531 35,000  Level FlightAware
06:41AM 32.7554 -98.0345 136° Southeast 463 533 35,000  Level FlightAware ADS-B
06:42AM 32.7033 -97.9819 140° Southeast 463 533 35,000  Level FlightAware ADS-B
06:42AM 32.6511 -97.9294 140° Southeast 462 532 35,000  Level FlightAware ADS-B
06:43AM 32.5570 -97.8347 140° Southeast 462 532 35,000  Level FlightAware ADS-B
06:44AM 32.4976 -97.7751 140° Southeast 461 531 35,000  Level FlightAware ADS-B
06:44AM 32.4393 -97.7167 140° Southeast 460 529 35,000  Level FlightAware ADS-B
06:45AM 32.3894 -97.6669 140° Southeast 461 531 35,000  Level FlightAware ADS-B
06:46AM 32.3196 -97.5966 140° Southeast 462 532 35,000  Level FlightAware ADS-B
06:46AM 32.2585 -97.5357 140° Southeast 462 532 35,000  Level FlightAware ADS-B
06:47AM 32.2003 -97.4778 140° Southeast 462 532 35,000  Level FlightAware ADS-B
06:47AM 32.1508 -97.4286 140° Southeast 462 532 35,000  Level FlightAware ADS-B
06:48AM 32.0950 -97.3733 140° Southeast 462 532 35,000  Level FlightAware ADS-B
06:49AM 32.0450 -97.3238 140° Southeast 461 531 35,000  Level FlightAware ADS-B
06:49AM 31.9918 -97.2711 140° Southeast 461 531 35,000  Level FlightAware ADS-B
06:50AM 31.9342 -97.2143 140° Southeast 461 531 35,000  Level FlightAware ADS-B
06:50AM 31.8840 -97.1648 140° Southeast 461 531 35,000  Level FlightAware ADS-B
06:51AM 31.8344 -97.1157 140° Southeast 459 528 35,000  Level FlightAware ADS-B
06:52AM 31.6875 -96.9715 140° Southeast 457 526 35,000  Level FlightAware ADS-B
06:53AM 31.6386 -96.9237 140° Southeast 457 526 35,000 -540 Level FlightAware ADS-B
06:54AM 31.5403 -96.8272 140° Southeast 463 533 34,200 -900 Descending FlightAware ADS-B
06:54AM 31.5103 -96.8011 143° Southeast 466 536 33,900 -960 Descending FlightAware ADS-B
06:55AM 31.4506 -96.7563 147° Southeast 469 540 33,400 -960 Descending FlightAware ADS-B
06:55AM 31.3946 -96.7145 147° Southeast 469 540 32,900 -1,140 Descending FlightAware ADS-B
06:57AM 31.1718 -96.5485 148° Southeast 475 547 30,600 -1,440 Descending FlightAware ADS-B
06:58AM 31.1159 -96.5070 148° Southeast 471 542 29,300 -2,580 Descending FlightAware ADS-B
06:58AM 31.0609 -96.4664 148° Southeast 465 535 28,000 -2,580 Descending FlightAware ADS-B
06:59AM 31.0059 -96.4257 148° Southeast 458 527 26,700 -2,520 Descending FlightAware ADS-B
07:00AM 30.8477 -96.3086 148° Southeast 434 499 23,000 -2,400 Descending FlightAware ADS-B
07:01AM 30.7468 -96.2339 147° Southeast 419 482 20,700 -2,340 Descending FlightAware ADS-B
07:02AM 30.6979 -96.1978 148° Southeast 411 473 19,500 -2,280 Descending FlightAware ADS-B
07:02AM 30.6498 -96.1625 148° Southeast 401 461 18,400 -2,220 Descending FlightAware ADS-B
07:02AM 30.6206 -96.1412 148° Southeast 395 455 17,700 -2,280 Descending FlightAware ADS-B
07:02AM 30.6128 -96.1362 151° Southeast 393 452 17,500 -2,160 Descending FlightAware ADS-B
07:03AM 30.5976 -96.1295 162° South 391 450 17,200 -2,340 Descending FlightAware ADS-B
07:03AM 30.5798 -96.1261 174° South 390 449 16,800 -2,340 Descending FlightAware ADS-B
07:03AM 30.5723 -96.1259 179° South 389 448 16,700 -1,800 Descending FlightAware ADS-B
07:03AM 30.5618 -96.1270 185° South 389 448 16,500 -1,740 Descending FlightAware ADS-B
07:04AM 30.4959 -96.1480 196° South 374 430 15,400 -2,100 Descending FlightAware ADS-B
07:04AM 30.4460 -96.1649 196° South 376 433 14,100 -2,220 Descending FlightAware ADS-B
07:05AM 30.3969 -96.1809 196° South 358 412 13,200 -1,800 Descending FlightAware ADS-B
07:05AM 30.3506 -96.1958 196° South 336 387 12,300 -1,680 Descending FlightAware ADS-B
07:05AM 30.3294 -96.2023 195° South 325 374 12,000 -1,380 Descending FlightAware ADS-B
07:06AM 30.2751 -96.2087 185° South 296 341 11,100 -1,620 Descending FlightAware ADS-B
07:06AM 30.2341 -96.2126 185° South 289 333 10,200 -1,980 Descending FlightAware ADS-B
07:07AM 30.1928 -96.2166 185° South 290 334 9,100 -2,280 Descending FlightAware ADS-B
07:07AM 30.1873 -96.2169 183° South 290 334 8,900 -2,280 Descending FlightAware ADS-B
07:07AM 30.1821 -96.2167 178° South 292 336 8,800 -1,500 Descending FlightAware ADS-B
07:07AM 30.1763 -96.2157 172° South 292 336 8,700 -1,740 Descending FlightAware ADS-B
07:07AM 30.1719 -96.2144 166° South 291 335 8,600 -2,040 Descending FlightAware ADS-B
07:07AM 30.1680 -96.2127 159° South 291 335 8,500 -1,500 Descending FlightAware ADS-B
07:07AM 30.1630 -96.2098 153° Southeast 290 334 8,400 -1,020 Descending FlightAware ADS-B
07:08AM 30.1555 -96.2036 142° Southeast 289 333 8,300 -1,200 Descending FlightAware ADS-B
07:08AM 30.1520 -96.1998 137° Southeast 287 330 8,200 -2,040 Descending FlightAware ADS-B
07:08AM 30.1476 -96.1935 129° Southeast 285 328 8,000 -1,380 Descending FlightAware ADS-B
07:08AM 30.1453 -96.1894 123° Southeast 285 328 8,000 -1,020 Level FlightAware ADS-B
07:08AM 30.1431 -96.1847 118° Southeast 285 328 7,900 -2,040 Descending FlightAware ADS-B
07:08AM 30.1416 -96.1805 112° Southeast 285 328 7,800 -1,500 Descending FlightAware ADS-B
07:08AM 30.1396 -96.1738 109° East 284 327 7,700 -1,200 Descending FlightAware ADS-B
07:08AM 30.1334 -96.1522 108° East 282 325 7,400 -1,380 Descending FlightAware ADS-B
07:08AM 30.1270 -96.1303 109° East 279 321 7,000 -1,380 Descending FlightAware ADS-B
07:09AM 30.1206 -96.1089 109° East 276 318 6,700 -1,020 Descending FlightAware ADS-B
07:09AM 30.1141 -96.0878 110° East 271 312 6,500 -600 Descending FlightAware ADS-B
07:09AM 30.1081 -96.0677 109° East 260 299 6,400 -480 Descending FlightAware ADS-B
07:09AM 30.1035 -96.0524 109° East 251 289 6,300 -480 Descending FlightAware ADS-B
07:10AM 30.0979 -96.0334 109° East 241 277 6,200 -600 Descending FlightAware ADS-B
07:10AM 30.0923 -96.0150 109° East 236 272 6,000 -780 Descending FlightAware ADS-B
07:10AM 30.0868 -95.9964 109° East 231 266 5,800 -1,020 Descending FlightAware ADS-B
07:10AM 30.0816 -95.9789 109° East 228 262 5,500 -1,200 Descending FlightAware ADS-B
07:11AM 30.0763 -95.9613 109° East 227 261 5,200 -1,080 Descending FlightAware ADS-B
07:11AM 30.0721 -95.9472 109° East 227 261 5,000 -1,140 Descending FlightAware ADS-B
07:11AM 30.0673 -95.9310 109° East 227 261 4,700 -1,200 Descending FlightAware ADS-B
07:11AM 30.0630 -95.9165 109° East 227 261 4,500 -900 Descending FlightAware ADS-B
07:12AM 30.0575 -95.8984 109° East 225 259 4,300 -780 Descending FlightAware ADS-B
07:12AM 30.0521 -95.8812 110° East 223 257 4,100 -660 Descending FlightAware ADS-B
07:12AM 30.0477 -95.8668 109° East 221 254 4,000 -240 Descending FlightAware ADS-B
07:12AM 30.0410 -95.8443 109° East 221 254 4,000  Level FlightAware ADS-B
07:13AM 30.0360 -95.8272 109° East 229 264 4,000  Level FlightAware ADS-B
07:13AM 30.0304 -95.8083 109° East 228 262 4,000  Level FlightAware ADS-B
07:13AM 30.0252 -95.7907 109° East 231 266 4,000  Level FlightAware ADS-B
07:13AM 30.0217 -95.7793 110° East 227 261 4,000  Level FlightAware ADS-B
07:14AM 30.0165 -95.7622 109° East 224 258 4,000  Level FlightAware ADS-B
07:14AM 30.0109 -95.7438 109° East 221 254 4,000  Level FlightAware ADS-B
07:14AM 30.0099 -95.7399 106° East 222 255 4,000  Level FlightAware ADS-B
07:14AM 30.0081 -95.7311 103° East 223 257 4,000 -480 Level FlightAware ADS-B
07:14AM 30.0072 -95.7248 99° East 222 255 3,900 -1,200 Descending FlightAware ADS-B
07:14AM 30.0050 -95.7063 98° East 224 258 3,600 -1,140 Descending FlightAware ADS-B
07:15AM 30.0033 -95.6927 98° East 223 257 3,400 -900 Descending FlightAware ADS-B
07:15AM 30.0010 -95.6750 99° East 221 254 3,200 -780 Descending FlightAware ADS-B
07:15AM 29.9987 -95.6562 98° East 220 253 3,000 -420 Descending FlightAware ADS-B
07:15AM 29.9964 -95.6378 98° East 217 250 3,000  Level FlightAware ADS-B
07:16AM 29.9942 -95.6196 98° East 220 253 3,000  Level FlightAware ADS-B
07:16AM 29.9934 -95.6121 97° East 220 253 3,000  Level FlightAware ADS-B
07:16AM 29.9930 -95.6065 95° East 221 254 3,000  Level FlightAware ADS-B
07:16AM 29.9930 -95.6012 90° East 222 255 3,000  Level FlightAware ADS-B
07:16AM 29.9930 -95.5823 90° East 223 257 3,000  Level FlightAware ADS-B
07:16AM 29.9931 -95.5631 90° East 224 258 3,000  Level FlightAware ADS-B
07:17AM 29.9931 -95.5452 90° East 224 258 3,000  Level FlightAware ADS-B
07:17AM 29.9931 -95.5260 90° East 225 259 3,000 -780 Level FlightAware ADS-B
07:17AM 29.9931 -95.5077 90° East 225 259 2,600 -1,380 Descending FlightAware ADS-B
07:17AM 29.9932 -95.4903 90° East 212 244 2,300 -1,200 Descending FlightAware ADS-B
07:18AM 29.9933 -95.4731 90° East 200 230 2,000 -1,140 Descending FlightAware ADS-B
07:18AM 29.9933 -95.4551 90° East 188 216 1,700 -900 Descending FlightAware ADS-B
07:18AM 29.9934 -95.4393 90° East 176 203 1,500 -840 Descending FlightAware ADS-B
07:18AM 29.9933 -95.4291 91° East 151 174 1,300 -900 Descending FlightAware ADS-B
07:19AM 29.9934 -95.4168 89° East 146 168 1,100 -840 Descending FlightAware ADS-B
07:19AM 29.9934 -95.4108 90° East 144 166 1,000 -780 Descending FlightAware ADS-B
07:19AM 29.9934 -95.4049 90° East 142 163 900 -720 Descending FlightAware ADS-B
07:19AM 29.9934 -95.3920 90° East 140 161 700 -840 Descending FlightAware ADS-B
07:19AM 29.9934 -95.3834 90° East 138 159 500 -780 Descending FlightAware ADS-B
07:20AM 29.9934 -95.3741 90° East 137 158 400 -720 Descending FlightAware ADS-B
07:20AM 29.9934 -95.3642 90° East 136 157 200 -600 Descending FlightAware ADS-B
07:20AM 29.9934 -95.3525 90° East 139 160 100 -420 Descending FlightAware ADS-B